createdAt,value
2022-09-16T00:01:55.443Z,19.12
2022-09-16T00:05:02.489Z,19.73
2022-09-16T00:08:09.993Z,18.40
2022-09-16T00:11:17.018Z,17.10
2022-09-16T00:14:26.030Z,17.95
2022-09-16T00:17:31.979Z,18.95
2022-09-16T00:20:38.189Z,17.60
2022-09-16T00:23:45.301Z,16.85
2022-09-16T00:26:51.595Z,17.35
2022-09-16T00:29:56.920Z,16.37
2022-09-16T00:33:03.410Z,17.65
2022-09-16T00:36:19.219Z,16.95
2022-09-16T00:39:24.077Z,17.60
2022-09-16T00:42:31.565Z,17.10
2022-09-16T00:45:39.211Z,17.37
2022-09-16T00:48:46.646Z,17.32
2022-09-16T00:51:54.979Z,17.30
2022-09-16T00:55:01.276Z,18.25
2022-09-16T00:58:08.684Z,17.62
2022-09-16T01:01:14.219Z,17.55
2022-09-16T01:04:23.930Z,17.65
2022-09-16T01:07:29.138Z,17.80
2022-09-16T01:10:38.100Z,18.30
2022-09-16T01:13:44.033Z,17.67
2022-09-16T01:16:52.117Z,17.57
2022-09-16T01:20:36.271Z,17.45
2022-09-16T01:24:03.056Z,17.35
2022-09-16T01:27:28.062Z,18.05
2022-09-16T01:31:08.140Z,17.73
2022-09-16T01:34:23.794Z,15.83
2022-09-16T01:37:49.081Z,17.50
2022-09-16T01:41:16.447Z,16.42
2022-09-16T01:44:41.503Z,17.40
2022-09-16T01:48:19.488Z,18.30
2022-09-16T01:51:38.520Z,17.20
2022-09-16T01:54:57.199Z,18.42
2022-09-16T01:58:12.991Z,17.48
2022-09-16T02:01:33.044Z,18.23
2022-09-16T02:04:47.991Z,19.42
2022-09-16T02:07:56.748Z,19.95
2022-09-16T02:11:07.946Z,19.45
2022-09-16T02:14:36.719Z,17.73
2022-09-16T02:17:43.876Z,17.27
2022-09-16T02:20:53.726Z,16.90
2022-09-16T02:24:04.815Z,17.40
2022-09-16T02:27:15.194Z,16.52
2022-09-16T02:30:24.710Z,17.20
2022-09-16T02:33:30.126Z,17.15
2022-09-16T02:36:37.906Z,17.60
2022-09-16T02:39:46.828Z,17.45
2022-09-16T02:42:53.238Z,21.93
2022-09-16T02:46:24.603Z,23.22
2022-09-16T02:49:56.401Z,23.85
2022-09-16T02:53:18.548Z,23.47
2022-09-16T02:56:48.401Z,25.92
2022-09-16T02:59:54.040Z,22.70
2022-09-16T03:03:01.447Z,21.02
2022-09-16T03:06:29.348Z,20.72
2022-09-16T03:09:36.607Z,19.15
2022-09-16T03:13:05.124Z,19.73
2022-09-16T03:16:26.809Z,18.80
2022-09-16T03:20:07.302Z,19.85
2022-09-16T03:23:42.888Z,19.42
2022-09-16T03:27:01.326Z,19.02
2022-09-16T03:30:19.399Z,23.10
2022-09-16T03:34:03.755Z,24.72
2022-09-16T03:37:24.935Z,27.73
2022-09-16T03:40:32.268Z,27.17
2022-09-16T03:43:38.498Z,26.50
2022-09-16T03:46:44.859Z,26.05
2022-09-16T03:49:51.521Z,24.20
2022-09-16T03:52:59.906Z,23.10
2022-09-16T03:56:06.236Z,24.65
2022-09-16T03:59:14.403Z,24.65
2022-09-16T04:02:20.869Z,24.43
2022-09-16T04:05:27.442Z,23.98
2022-09-16T04:08:34.219Z,26.25
2022-09-16T04:11:42.356Z,28.80
2022-09-16T04:14:49.503Z,29.80
2022-09-16T04:17:55.158Z,28.32
2022-09-16T04:21:01.359Z,26.75
2022-09-16T04:24:12.646Z,24.87
2022-09-16T04:27:14.656Z,24.70
2022-09-16T04:30:22.342Z,24.23
2022-09-16T04:33:28.648Z,24.70
2022-09-16T04:36:35.282Z,24.67
2022-09-16T04:39:43.338Z,25.15
2022-09-16T04:42:49.297Z,25.25
2022-09-16T04:45:55.580Z,25.40
2022-09-16T04:49:08.149Z,23.83
2022-09-16T04:52:13.761Z,24.85
2022-09-16T04:55:20.837Z,24.85
2022-09-16T04:58:28.170Z,23.98
2022-09-16T05:01:37.971Z,25.92
2022-09-16T05:04:44.549Z,26.12
2022-09-16T05:07:52.376Z,26.90
2022-09-16T05:10:59.886Z,25.10
2022-09-16T05:14:06.923Z,24.37
2022-09-16T05:17:33.163Z,23.05
2022-09-16T05:20:23.317Z,23.25
2022-09-16T05:23:28.846Z,25.32
2022-09-16T05:26:43.640Z,22.90
2022-09-16T05:29:50.033Z,23.90
2022-09-16T05:32:57.213Z,25.97
2022-09-16T05:36:03.012Z,33.10
2022-09-16T05:39:24.774Z,24.12
2022-09-16T05:42:16.997Z,26.37
2022-09-16T05:45:30.048Z,25.12
2022-09-16T05:48:32.774Z,25.90
2022-09-16T05:51:38.888Z,30.88
2022-09-16T05:54:45.033Z,25.60
2022-09-16T05:57:50.970Z,22.52
2022-09-16T06:00:57.308Z,23.60
2022-09-16T06:04:04.893Z,22.42
2022-09-16T06:07:12.039Z,22.40
2022-09-16T06:10:16.998Z,22.93
2022-09-16T06:13:22.886Z,22.70
2022-09-16T06:16:32.161Z,21.55
2022-09-16T06:19:39.497Z,21.93
2022-09-16T06:22:46.859Z,21.17
2022-09-16T06:25:51.817Z,21.17
2022-09-16T06:28:59.192Z,20.57
2022-09-16T06:32:05.228Z,21.12
2022-09-16T06:35:11.543Z,20.23
2022-09-16T06:38:18.587Z,22.37
2022-09-16T06:41:25.453Z,19.90
2022-09-16T06:44:31.944Z,18.85
2022-09-16T06:47:39.883Z,20.40
2022-09-16T06:50:45.665Z,19.67
2022-09-16T06:53:55.255Z,19.05
2022-09-16T06:57:11.407Z,18.77
2022-09-16T07:00:14.475Z,20.57
2022-09-16T07:03:21.797Z,18.92
2022-09-16T07:06:57.761Z,20.95
2022-09-16T07:09:39.466Z,24.35
2022-09-16T07:12:47.155Z,21.15
2022-09-16T07:16:12.230Z,18.05
2022-09-16T07:19:01.377Z,17.80
2022-09-16T07:22:09.824Z,18.27
2022-09-16T07:25:19.283Z,18.77
2022-09-16T07:28:26.084Z,16.07
2022-09-16T07:31:39.626Z,15.45
2022-09-16T07:34:48.326Z,16.65
2022-09-16T07:37:54.650Z,16.35
2022-09-16T07:41:01.797Z,16.35
2022-09-16T07:44:09.138Z,14.95
2022-09-16T07:47:21.431Z,14.93
2022-09-16T07:50:25.933Z,16.60
2022-09-16T07:53:35.666Z,13.60
2022-09-16T07:56:47.739Z,13.83
2022-09-16T08:03:04.714Z,11.78
2022-09-16T08:06:24.725Z,12.90
2022-09-16T08:09:44.231Z,12.68
2022-09-16T08:12:43.979Z,12.75
2022-09-16T08:15:50.094Z,11.57
2022-09-16T08:19:10.258Z,13.15
2022-09-16T08:22:15.947Z,12.37
2022-09-16T08:25:22.364Z,15.03
2022-09-16T08:28:40.036Z,24.55
2022-09-16T08:31:39.249Z,16.52
2022-09-16T08:34:47.064Z,12.65
2022-09-16T08:37:54.443Z,14.30
2022-09-16T08:41:00.501Z,13.80
2022-09-16T08:44:54.192Z,12.82
2022-09-16T08:48:28.498Z,13.43
2022-09-16T08:51:34.996Z,13.28
2022-09-16T08:55:05.518Z,13.10
2022-09-16T08:58:31.581Z,13.40
2022-09-16T09:02:24.447Z,12.60
2022-09-16T09:05:34.421Z,18.45
2022-09-16T09:08:58.693Z,12.88
2022-09-16T09:12:26.731Z,12.50
2022-09-16T09:15:48.603Z,12.82
2022-09-16T09:19:33.760Z,12.65
2022-09-16T09:23:09.166Z,8.35
2022-09-16T09:26:31.065Z,8.05
2022-09-16T09:30:04.490Z,7.12
2022-09-16T09:33:46.637Z,7.72
2022-09-16T09:37:07.796Z,9.25
2022-09-16T09:40:44.308Z,10.98
2022-09-16T09:44:02.979Z,10.70
2022-09-16T09:47:11.862Z,8.83
2022-09-16T09:50:44.473Z,8.43
2022-09-16T09:54:19.269Z,9.18
2022-09-16T09:57:58.092Z,9.58
2022-09-16T10:01:05.622Z,15.48
2022-09-16T10:04:11.733Z,13.00
2022-09-16T10:07:19.644Z,30.85
2022-09-16T10:10:33.596Z,12.05
2022-09-16T10:14:06.205Z,16.50
2022-09-16T10:17:24.647Z,10.53
2022-09-16T10:24:15.650Z,10.10
2022-09-16T10:27:43.992Z,10.28
2022-09-16T10:31:09.274Z,9.83
2022-09-16T10:34:15.839Z,11.43
2022-09-16T10:37:35.635Z,14.10
2022-09-16T10:40:41.254Z,13.25
2022-09-16T10:43:48.086Z,13.40
2022-09-16T10:47:43.317Z,13.18
2022-09-16T10:51:08.511Z,14.33
2022-09-16T10:54:20.998Z,13.72
2022-09-16T10:58:14.055Z,12.43
2022-09-16T11:02:03.806Z,10.03
2022-09-16T11:06:04.009Z,9.75
2022-09-16T11:09:27.565Z,6.60
2022-09-16T11:13:07.496Z,5.80
2022-09-16T11:16:53.522Z,5.17
2022-09-16T11:20:25.943Z,10.98
2022-09-16T11:24:17.611Z,7.00
2022-09-16T11:27:42.352Z,7.30
2022-09-16T11:30:55.309Z,7.45
2022-09-16T11:34:19.083Z,7.42
2022-09-16T11:37:45.989Z,6.85
2022-09-16T11:41:04.079Z,9.93
2022-09-16T11:44:30.479Z,7.28
2022-09-16T11:48:00.187Z,6.97
2022-09-16T11:51:33.495Z,7.33
2022-09-16T11:55:13.257Z,9.33
2022-09-16T11:58:26.513Z,8.38
2022-09-16T12:01:59.219Z,7.62
2022-09-16T12:05:35.001Z,8.88
2022-09-16T12:09:15.771Z,9.95
2022-09-16T12:12:33.414Z,10.82
2022-09-16T12:16:08.033Z,13.13
2022-09-16T12:19:42.976Z,10.78
2022-09-16T12:22:53.222Z,10.85
2022-09-16T12:26:19.619Z,12.05
2022-09-16T12:29:49.265Z,9.58
2022-09-16T12:33:30.966Z,11.35
2022-09-16T12:36:46.590Z,11.45
2022-09-16T12:39:53.757Z,10.05
2022-09-16T12:43:43.417Z,9.65
2022-09-16T12:47:43.365Z,10.25
2022-09-16T12:51:08.479Z,8.60
2022-09-16T12:54:51.189Z,8.85
2022-09-16T12:58:13.012Z,9.03
2022-09-16T13:01:42.834Z,7.97
2022-09-16T13:04:57.323Z,7.87
2022-09-16T13:08:07.936Z,6.40
2022-09-16T13:12:14.873Z,6.25
2022-09-16T13:14:43.228Z,7.83
2022-09-16T13:17:57.610Z,7.67
2022-09-16T13:21:14.780Z,7.70
2022-09-16T13:24:29.734Z,7.90
2022-09-16T13:30:52.819Z,8.53
2022-09-16T13:34:15.921Z,8.08
2022-09-16T13:37:29.612Z,7.72
2022-09-16T13:40:42.666Z,7.97
2022-09-16T13:44:05.085Z,8.08
2022-09-16T13:47:31.149Z,8.00
2022-09-16T13:50:41.396Z,7.47
2022-09-16T13:53:52.401Z,7.05
2022-09-16T13:57:26.373Z,7.92
2022-09-16T14:00:55.169Z,7.60
2022-09-16T14:04:39.057Z,8.38
2022-09-16T14:08:14.242Z,8.80
2022-09-16T14:11:28.806Z,8.65
2022-09-16T14:14:49.105Z,8.80
2022-09-16T14:18:00.541Z,10.00
2022-09-16T14:21:28.234Z,9.98
2022-09-16T14:24:36.549Z,9.08
2022-09-16T14:27:47.939Z,9.33
2022-09-16T14:31:07.231Z,10.80
2022-09-16T14:34:18.200Z,8.95
2022-09-16T14:37:28.814Z,10.32
2022-09-16T14:40:37.627Z,9.93
2022-09-16T14:43:43.692Z,11.93
2022-09-16T14:46:50.199Z,15.60
2022-09-16T14:49:55.152Z,13.85
2022-09-16T14:53:16.065Z,14.78
2022-09-16T14:56:32.457Z,13.75
2022-09-16T14:59:43.885Z,12.05
2022-09-16T15:02:59.454Z,11.53
2022-09-16T15:06:06.396Z,10.60
2022-09-16T15:09:25.374Z,12.93
2022-09-16T15:12:55.652Z,11.95
2022-09-16T15:16:23.670Z,12.28
2022-09-16T15:19:37.393Z,11.28
2022-09-16T15:22:43.018Z,11.68
2022-09-16T15:25:49.483Z,12.33
2022-09-16T15:29:11.927Z,12.33
2022-09-16T15:32:37.049Z,12.75
2022-09-16T15:35:44.981Z,12.98
2022-09-16T15:38:51.338Z,15.70
2022-09-16T15:41:58.842Z,16.02
2022-09-16T15:45:07.099Z,17.70
2022-09-16T15:48:18.649Z,14.95
2022-09-16T15:51:55.585Z,14.75
2022-09-16T15:55:11.339Z,15.35
2022-09-16T15:58:34.605Z,15.98
2022-09-16T16:02:02.091Z,17.80
2022-09-16T16:05:08.587Z,17.32
2022-09-16T16:08:17.111Z,17.35
2022-09-16T16:11:26.283Z,17.40
2022-09-16T16:14:33.366Z,25.62
2022-09-16T16:17:39.875Z,18.05
2022-09-16T16:20:47.608Z,17.32
2022-09-16T16:23:53.916Z,19.20
2022-09-16T16:27:03.912Z,16.82
2022-09-16T16:30:10.369Z,18.20
2022-09-16T16:33:20.135Z,20.12
2022-09-16T16:36:30.116Z,22.70
2022-09-16T16:39:36.817Z,21.80
2022-09-16T16:42:43.729Z,20.35
2022-09-16T16:45:49.182Z,23.02
2022-09-16T16:48:57.408Z,23.40
2022-09-16T16:52:07.511Z,23.47
2022-09-16T16:55:14.647Z,27.07
2022-09-16T16:58:20.257Z,24.77
2022-09-16T17:01:28.372Z,24.35
2022-09-16T17:04:35.189Z,24.67
2022-09-16T17:07:43.069Z,25.25
2022-09-16T17:10:51.163Z,24.40
2022-09-16T17:13:59.656Z,33.40
2022-09-16T17:17:06.039Z,58.45
2022-09-16T17:20:13.209Z,36.28
2022-09-16T17:23:19.079Z,36.85
2022-09-16T17:26:26.869Z,40.60
2022-09-16T17:29:33.545Z,36.53
2022-09-16T17:32:38.241Z,35.52
2022-09-16T17:35:43.138Z,36.63
2022-09-16T17:38:48.451Z,39.60
2022-09-16T17:41:55.518Z,43.23
2022-09-16T17:45:01.281Z,44.18
2022-09-16T17:48:07.059Z,41.40
2022-09-16T17:51:11.928Z,38.20
2022-09-16T17:54:17.578Z,35.98
2022-09-16T17:57:23.227Z,35.52
2022-09-16T18:00:30.081Z,35.10
2022-09-16T18:03:36.038Z,35.35
2022-09-16T18:06:48.527Z,31.10
2022-09-16T18:09:54.578Z,31.33
2022-09-16T18:13:02.555Z,30.82
2022-09-16T18:16:09.715Z,29.70
2022-09-16T18:19:16.414Z,29.40
2022-09-16T18:22:23.978Z,28.73
2022-09-16T18:25:32.516Z,28.67
2022-09-16T18:29:05.177Z,28.10
2022-09-16T18:31:46.422Z,31.25
2022-09-16T18:34:51.852Z,39.13
2022-09-16T18:37:57.732Z,41.70
2022-09-16T18:41:04.110Z,43.10
2022-09-16T18:44:15.906Z,41.75
2022-09-16T18:47:22.233Z,34.80
2022-09-16T18:50:29.243Z,37.58
2022-09-16T18:53:34.857Z,38.00
2022-09-16T18:56:40.910Z,32.08
2022-09-16T18:59:47.233Z,37.15
2022-09-16T19:02:54.766Z,46.83
2022-09-16T19:06:12.821Z,32.50
2022-09-16T19:09:20.548Z,29.85
2022-09-16T19:12:27.502Z,29.27
2022-09-16T19:15:34.528Z,25.27
2022-09-16T19:18:40.774Z,24.52
2022-09-16T19:21:48.116Z,24.35
2022-09-16T19:24:54.149Z,24.23
2022-09-16T19:28:00.999Z,24.70
2022-09-16T19:31:05.781Z,26.52
2022-09-16T19:34:12.319Z,28.95
2022-09-16T19:37:18.748Z,28.10
2022-09-16T19:40:27.590Z,26.42
2022-09-16T19:43:36.461Z,25.45
2022-09-16T19:46:41.715Z,25.77
2022-09-16T19:49:48.420Z,25.68
2022-09-16T19:52:56.962Z,25.15
2022-09-16T19:56:04.311Z,24.90
2022-09-16T19:59:12.504Z,25.60
2022-09-16T20:02:19.534Z,26.82
2022-09-16T20:05:28.089Z,25.75
2022-09-16T20:08:33.761Z,26.87
2022-09-16T20:11:41.731Z,28.02
2022-09-16T20:14:47.915Z,27.93
2022-09-16T20:17:55.215Z,29.07
2022-09-16T20:20:59.975Z,29.27
2022-09-16T20:24:06.158Z,30.35
2022-09-16T20:27:11.913Z,28.65
2022-09-16T20:30:17.424Z,28.10
2022-09-16T20:33:22.965Z,31.10
2022-09-16T20:36:33.006Z,30.27
2022-09-16T20:39:40.497Z,29.95
2022-09-16T20:42:45.505Z,30.68
2022-09-16T20:45:51.998Z,28.27
2022-09-16T20:48:58.134Z,31.62
2022-09-16T20:52:05.273Z,35.83
2022-09-16T20:55:15.258Z,36.77
2022-09-16T20:58:20.248Z,36.45
2022-09-16T21:01:32.947Z,35.48
2022-09-16T21:04:39.393Z,31.93
2022-09-16T21:07:46.237Z,32.05
2022-09-16T21:10:55.491Z,32.20
2022-09-16T21:14:09.843Z,28.10
2022-09-16T21:17:16.872Z,28.98
2022-09-16T21:20:24.991Z,27.05
2022-09-16T21:23:32.468Z,26.50
2022-09-16T21:26:41.662Z,26.12
2022-09-16T21:29:47.802Z,26.95
2022-09-16T21:32:53.813Z,28.25
2022-09-16T21:36:07.109Z,29.02
2022-09-16T21:39:15.025Z,30.95
2022-09-16T21:42:20.779Z,30.43
2022-09-16T21:45:26.944Z,31.60
2022-09-16T21:48:34.322Z,32.42
2022-09-16T21:51:42.819Z,31.75
2022-09-16T21:54:47.974Z,34.58
2022-09-16T21:57:54.699Z,31.75
2022-09-16T22:01:00.920Z,32.55
2022-09-16T22:04:12.669Z,32.13
2022-09-16T22:07:18.245Z,30.75
2022-09-16T22:10:25.318Z,30.82
2022-09-16T22:13:31.908Z,30.27
2022-09-16T22:16:39.786Z,29.90
2022-09-16T22:19:46.349Z,29.82
2022-09-16T22:22:54.186Z,30.88
2022-09-16T22:26:00.343Z,29.72
2022-09-16T22:29:06.134Z,28.27
2022-09-16T22:32:13.899Z,28.67
2022-09-16T22:35:20.428Z,27.25
2022-09-16T22:38:26.043Z,27.77
2022-09-16T22:41:31.630Z,28.50
2022-09-16T22:44:38.085Z,28.25
2022-09-16T22:47:44.149Z,27.90
2022-09-16T22:50:49.892Z,28.00
2022-09-16T22:53:56.691Z,27.20
2022-09-16T22:57:03.063Z,27.32
2022-09-16T23:00:09.416Z,27.20
2022-09-16T23:03:15.981Z,26.50
2022-09-16T23:06:26.970Z,25.57
2022-09-16T23:09:32.319Z,25.00
2022-09-16T23:12:39.191Z,25.70
2022-09-16T23:15:45.351Z,24.50
2022-09-16T23:18:52.590Z,24.85
2022-09-16T23:21:58.418Z,23.95
2022-09-16T23:25:05.155Z,23.77
2022-09-16T23:28:12.330Z,22.05
2022-09-16T23:31:24.028Z,23.62
2022-09-16T23:34:33.472Z,23.20
2022-09-16T23:37:38.712Z,24.75
2022-09-16T23:40:47.716Z,27.75
2022-09-16T23:43:54.157Z,24.45
2022-09-16T23:47:00.556Z,24.27
2022-09-16T23:50:07.370Z,23.35
2022-09-16T23:53:14.188Z,24.92
2022-09-16T23:56:23.383Z,24.92
2022-09-16T23:59:29.643Z,24.30
